James L. Oberstar — WDC6154 — position and weather

sailwx.info

Track history (hours):
 
Tides and Currents Weather Stations Pressure Air Temp Water Temp Dewpoint Dewpoint Depression Visibility Wind Speed Wind Dir Waves Ship Positions

James L. Oberstar

More information available from US FCC via Universal Licensing System and Coast Guard Vessel Documentation Center.

Last reported at 2014-Jul-06 11:29 UTC. Time now 2014-Jul-25 18:16 UTC.
Position N 29°58' W 090°24'.
Warning: this ship's position is 19 days out of date.

Length 26 m; draft 2.8 m.

Type: Towing. MMSI: 367052120.

Date/timePositionNaut miles runAvg speedWind from/ knotsBaromVisibWave heightAir tempDewpointWater temp
2014-Jul-06 11:29N 29°58' W 090°24'0 0.0
2014-Jul-06 10:20N 29°58' W 090°24'  
2014-Jul-02 03:21N 29°58' W 090°24'0 0.0
2014-Jul-01 22:22N 29°58' W 090°24'2 0.1
2014-Jun-30 23:34N 29°59' W 090°25'7 7.4
2014-Jun-30 22:33N 30°03' W 090°32'4 1.6
2014-Jun-30 20:09N 30°02' W 090°37'3 4.5
2014-Jun-30 19:33N 30°03' W 090°33'10 1.5
2014-Jun-30 12:33N 29°57' W 090°23'0 0.0
2014-Jun-30 11:33N 29°57' W 090°23'0 0.0
2014-Jun-30 10:28N 29°57' W 090°23'0 0.0
2014-Jun-30 09:31N 29°57' W 090°23'0 0.0
2014-Jun-30 08:31N 29°57' W 090°23'0 0.0
2014-Jun-30 07:31N 29°57' W 090°23'0 0.0
2014-Jun-30 06:28N 29°57' W 090°23'0 0.0
2014-Jun-30 05:31N 29°57' W 090°23'0 0.0
2014-Jun-30 04:31N 29°57' W 090°23'0 0.0
2014-Jun-30 03:28N 29°57' W 090°23'0 0.0
2014-Jun-30 02:31N 29°57' W 090°23'0 0.0
2014-Jun-30 01:31N 29°57' W 090°23'0 0.0
2014-Jun-30 00:31N 29°57' W 090°23'0 0.0
2014-Jun-29 23:31N 29°57' W 090°23'0 0.0
2014-Jun-29 22:31N 29°57' W 090°23'0 0.0
2014-Jun-29 21:31N 29°57' W 090°23'0 0.0
2014-Jun-29 20:31N 29°57' W 090°23'0 0.0
2014-Jun-29 19:31N 29°57' W 090°23'0 0.0
2014-Jun-29 18:31N 29°57' W 090°23'0 0.0
2014-Jun-29 17:31N 29°57' W 090°23'1 0.5
2014-Jun-29 16:29N 29°57' W 090°23'1 0.1
2014-Jun-29 12:31N 29°57' W 090°23'0 0.0
2014-Jun-29 11:31N 29°57' W 090°23'2 2.1
2014-Jun-29 10:33N 29°59' W 090°24'7 7.3
2014-Jun-29 09:33N 30°03' W 090°31'7 6.4
2014-Jun-29 08:31N 30°03' W 090°39'0 0.1
2014-Jun-29 07:33N 30°03' W 090°39'0 0.1
2014-Jun-29 06:31N 30°03' W 090°39'0 0.0
2014-Jun-29 05:31N 30°03' W 090°39'0 0.0
2014-Jun-29 04:31N 30°03' W 090°39'0 0.0
2014-Jun-29 03:28N 30°03' W 090°39'0 0.0
2014-Jun-29 02:31N 30°03' W 090°39'0 0.0
2014-Jun-29 01:28N 30°03' W 090°39'0 0.0
2014-Jun-29 00:28N 30°03' W 090°39'0 0.4
2014-Jun-28 23:30N 30°03' W 090°39'0 0.0
2014-Jun-28 22:30N 30°03' W 090°39'0 0.0
2014-Jun-28 21:33N 30°03' W 090°39'0 0.0
2014-Jun-28 20:33N 30°03' W 090°39'0 0.0
2014-Jun-28 19:06N 30°03' W 090°39'0 0.0
2014-Jun-28 18:30N 30°03' W 090°39'0 0.0
2014-Jun-28 12:33N 30°03' W 090°39'0 0.0
2014-Jun-28 11:33N 30°03' W 090°39'0 0.0
2014-Jun-28 10:33N 30°03' W 090°39'0 0.0
2014-Jun-28 09:33N 30°03' W 090°39'0 0.0
2014-Jun-28 08:30N 30°03' W 090°39'0 0.0
2014-Jun-28 07:27N 30°03' W 090°39'0 0.2
2014-Jun-28 06:33N 30°03' W 090°39'3 3.4
2014-Jun-28 05:33N 30°02' W 090°42'8 6.0
2014-Jun-28 04:17N 30°03' W 090°51'5 7.2
2014-Jun-28 03:32N 30°07' W 090°55'6 5.8
2014-Jun-28 02:31N 30°07' W 091°02'17 0.7
2014-Jun-27 03:26N 29°53' W 091°13'4 4.6
2014-Jun-27 02:33N 29°50' W 091°10'5 4.9
2014-Jun-27 01:34N 29°45' W 091°11'4 3.8
2014-Jun-27 00:33N 29°41' W 091°13'4 4.2
2014-Jun-26 23:33N 29°39' W 091°17'5 4.7
2014-Jun-26 22:33N 29°39' W 091°22'5 1.3
2014-Jun-26 18:33N 29°41' W 091°27'0 0.0
2014-Jun-26 17:12N 29°41' W 091°27'0 0.0
2014-Jun-26 16:33N 29°41' W 091°27'0 0.0
2014-Jun-26 15:24N 29°41' W 091°27'0 0.0
2014-Jun-26 14:30N 29°41' W 091°27'0 0.0
2014-Jun-26 13:33N 29°41' W 091°27'0 0.0
2014-Jun-26 12:33N 29°41' W 091°27'0 0.0
2014-Jun-26 11:33N 29°41' W 091°27'  
Track history (hours):
 
Tides and Currents Weather Stations Pressure Air Temp Water Temp Dewpoint Dewpoint Depression Visibility Wind Speed Wind Dir Waves Ship Positions

James L. Oberstar

More information available from US FCC via Universal Licensing System and Coast Guard Vessel Documentation Center.

Last reported at 2014-Jul-06 11:29 UTC. Time now 2014-Jul-25 18:16 UTC.
Position N 29°58' W 090°24'.
Warning: this ship's position is 19 days out of date.

Length 26 m; draft 2.8 m.

Type: Towing. MMSI: 367052120.

Date/timePositionNaut miles runAvg speedWind from/ knotsBaromVisibWave heightAir tempDewpointWater temp
2014-Jul-06 11:29N 29°58' W 090°24'0 0.0
2014-Jul-06 10:20N 29°58' W 090°24'  
2014-Jul-02 03:21N 29°58' W 090°24'0 0.0
2014-Jul-01 22:22N 29°58' W 090°24'2 0.1
2014-Jun-30 23:34N 29°59' W 090°25'7 7.4
2014-Jun-30 22:33N 30°03' W 090°32'4 1.6
2014-Jun-30 20:09N 30°02' W 090°37'3 4.5
2014-Jun-30 19:33N 30°03' W 090°33'10 1.5
2014-Jun-30 12:33N 29°57' W 090°23'0 0.0
2014-Jun-30 11:33N 29°57' W 090°23'0 0.0
2014-Jun-30 10:28N 29°57' W 090°23'0 0.0
2014-Jun-30 09:31N 29°57' W 090°23'0 0.0
2014-Jun-30 08:31N 29°57' W 090°23'0 0.0
2014-Jun-30 07:31N 29°57' W 090°23'0 0.0
2014-Jun-30 06:28N 29°57' W 090°23'0 0.0
2014-Jun-30 05:31N 29°57' W 090°23'0 0.0
2014-Jun-30 04:31N 29°57' W 090°23'0 0.0
2014-Jun-30 03:28N 29°57' W 090°23'0 0.0
2014-Jun-30 02:31N 29°57' W 090°23'0 0.0
2014-Jun-30 01:31N 29°57' W 090°23'0 0.0
2014-Jun-30 00:31N 29°57' W 090°23'0 0.0
2014-Jun-29 23:31N 29°57' W 090°23'0 0.0
2014-Jun-29 22:31N 29°57' W 090°23'0 0.0
2014-Jun-29 21:31N 29°57' W 090°23'0 0.0
2014-Jun-29 20:31N 29°57' W 090°23'0 0.0
2014-Jun-29 19:31N 29°57' W 090°23'0 0.0
2014-Jun-29 18:31N 29°57' W 090°23'0 0.0
2014-Jun-29 17:31N 29°57' W 090°23'1 0.5
2014-Jun-29 16:29N 29°57' W 090°23'1 0.1
2014-Jun-29 12:31N 29°57' W 090°23'0 0.0
2014-Jun-29 11:31N 29°57' W 090°23'2 2.1
2014-Jun-29 10:33N 29°59' W 090°24'7 7.3
2014-Jun-29 09:33N 30°03' W 090°31'7 6.4
2014-Jun-29 08:31N 30°03' W 090°39'0 0.1
2014-Jun-29 07:33N 30°03' W 090°39'0 0.1
2014-Jun-29 06:31N 30°03' W 090°39'0 0.0
2014-Jun-29 05:31N 30°03' W 090°39'0 0.0
2014-Jun-29 04:31N 30°03' W 090°39'0 0.0
2014-Jun-29 03:28N 30°03' W 090°39'0 0.0
2014-Jun-29 02:31N 30°03' W 090°39'0 0.0
2014-Jun-29 01:28N 30°03' W 090°39'0 0.0
2014-Jun-29 00:28N 30°03' W 090°39'0 0.4
2014-Jun-28 23:30N 30°03' W 090°39'0 0.0
2014-Jun-28 22:30N 30°03' W 090°39'0 0.0
2014-Jun-28 21:33N 30°03' W 090°39'0 0.0
2014-Jun-28 20:33N 30°03' W 090°39'0 0.0
2014-Jun-28 19:06N 30°03' W 090°39'0 0.0
2014-Jun-28 18:30N 30°03' W 090°39'0 0.0
2014-Jun-28 12:33N 30°03' W 090°39'0 0.0
2014-Jun-28 11:33N 30°03' W 090°39'0 0.0
2014-Jun-28 10:33N 30°03' W 090°39'0 0.0
2014-Jun-28 09:33N 30°03' W 090°39'0 0.0
2014-Jun-28 08:30N 30°03' W 090°39'0 0.0
2014-Jun-28 07:27N 30°03' W 090°39'0 0.2
2014-Jun-28 06:33N 30°03' W 090°39'3 3.4
2014-Jun-28 05:33N 30°02' W 090°42'8 6.0
2014-Jun-28 04:17N 30°03' W 090°51'5 7.2
2014-Jun-28 03:32N 30°07' W 090°55'6 5.8
2014-Jun-28 02:31N 30°07' W 091°02'17 0.7
2014-Jun-27 03:26N 29°53' W 091°13'4 4.6
2014-Jun-27 02:33N 29°50' W 091°10'5 4.9
2014-Jun-27 01:34N 29°45' W 091°11'4 3.8
2014-Jun-27 00:33N 29°41' W 091°13'4 4.2
2014-Jun-26 23:33N 29°39' W 091°17'5 4.7
2014-Jun-26 22:33N 29°39' W 091°22'5 1.3
2014-Jun-26 18:33N 29°41' W 091°27'0 0.0
2014-Jun-26 17:12N 29°41' W 091°27'0 0.0
2014-Jun-26 16:33N 29°41' W 091°27'0 0.0
2014-Jun-26 15:24N 29°41' W 091°27'0 0.0
2014-Jun-26 14:30N 29°41' W 091°27'0 0.0
2014-Jun-26 13:33N 29°41' W 091°27'0 0.0
2014-Jun-26 12:33N 29°41' W 091°27'0 0.0
2014-Jun-26 11:33N 29°41' W 091°27'  

Dump ship's entire track history